Time;durP1;ratioP1;P1;durP2;ratioP2;P2;SDS_P1;SDS_P2;PMS_P1;PMS_P2;Temp;Humidity;BMP_temperature;BMP_pressure;BME280_temperature;BME280_humidity;BME280_pressure;Samples;Min_cycle;Max_cycle;Signal;HPM_P1;HPM_P2
2023/01/09 00:01:54;;;;;;;73.40;34.00;;;;;;;;;;4932553;29;20768;-59
2023/01/09 00:04:21;;;;;;;71.07;31.70;;;;;;;;;;4932221;29;20830;-59
2023/01/09 00:06:52;;;;;;;70.67;33.10;;;;;;;;;;4928504;29;20196;-59
2023/01/09 00:09:20;;;;;;;80.10;35.30;;;;;;;;;;4925056;29;20214;-59
2023/01/09 00:11:47;;;;;;;69.80;33.63;;;;;;;;;;4932776;29;20490;-59
2023/01/09 00:14:15;;;;;;;76.60;34.37;;;;;;;;;;4932593;29;20226;-59
2023/01/09 00:16:41;;;;;;;65.67;31.90;;;;;;;;;;4932756;29;20435;-59
2023/01/09 00:19:08;;;;;;;70.33;33.03;;;;;;;;;;4932763;29;20474;-59
2023/01/09 00:21:35;;;;;;;68.97;33.23;;;;;;;;;;4931808;29;20450;-59
2023/01/09 00:24:02;;;;;;;65.17;33.20;;;;;;;;;;4932607;29;20278;-59
2023/01/09 00:26:29;;;;;;;65.37;32.73;;;;;;;;;;4931831;29;20570;-59
2023/01/09 00:28:56;;;;;;;65.20;31.40;;;;;;;;;;4929986;29;20455;-59
2023/01/09 00:31:23;;;;;;;63.67;31.80;;;;;;;;;;4915023;29;20803;-59
2023/01/09 00:33:52;;;;;;;62.23;32.20;;;;;;;;;;4933088;29;20571;-59
2023/01/09 00:36:19;;;;;;;64.93;31.63;;;;;;;;;;4931796;29;20464;-59
2023/01/09 00:38:45;;;;;;;68.07;31.57;;;;;;;;;;4931802;29;20552;-59
2023/01/09 00:41:35;;;;;;;66.47;31.33;;;;;;;;;;4932074;29;20197;-59
2023/01/09 00:44:12;;;;;;;61.43;31.00;;;;;;;;;;4930434;29;20863;-59
2023/01/09 00:46:58;;;;;;;66.57;30.40;;;;;;;;;;4931354;29;20187;-59
2023/01/09 00:49:25;;;;;;;66.33;30.03;;;;;;;;;;4930716;29;20190;-59
2023/01/09 00:51:51;;;;;;;65.60;32.60;;;;;;;;;;4932667;29;20226;-59
2023/01/09 00:54:18;;;;;;;67.27;30.77;;;;;;;;;;4930079;29;20250;-59
2023/01/09 00:56:45;;;;;;;65.47;30.80;;;;;;;;;;4931952;29;20195;-59
2023/01/09 00:59:11;;;;;;;66.30;31.23;;;;;;;;;;4926856;29;21017;-59
2023/01/09 01:01:38;;;;;;;66.70;31.70;;;;;;;;;;4932025;29;20737;-59
2023/01/09 01:09:36;;;;;;;67.40;32.47;;;;;;;;;;4931912;29;20449;-59
2023/01/09 01:12:05;;;;;;;72.90;34.03;;;;;;;;;;4931872;29;20788;-59
2023/01/09 01:14:33;;;;;;;69.90;31.97;;;;;;;;;;4932183;29;20250;-59
2023/01/09 01:17:01;;;;;;;70.13;32.80;;;;;;;;;;4932021;29;20513;-59
2023/01/09 01:19:28;;;;;;;76.60;33.60;;;;;;;;;;4931898;29;20191;-59
2023/01/09 01:21:54;;;;;;;73.97;32.67;;;;;;;;;;4931090;29;20447;-60
2023/01/09 01:24:21;;;;;;;70.87;33.57;;;;;;;;;;4931909;29;20565;-59
2023/01/09 01:26:47;;;;;;;67.23;31.70;;;;;;;;;;4931665;29;20286;-59
2023/01/09 01:29:14;;;;;;;68.60;32.30;;;;;;;;;;4931655;29;20593;-59
2023/01/09 01:31:41;;;;;;;77.73;34.97;;;;;;;;;;4932328;29;20193;-59
2023/01/09 01:34:08;;;;;;;71.63;34.00;;;;;;;;;;4931496;29;20513;-59
2023/01/09 01:36:35;;;;;;;67.97;32.93;;;;;;;;;;4931779;29;20442;-60
2023/01/09 01:39:01;;;;;;;74.10;34.53;;;;;;;;;;4931594;29;21044;-61
2023/01/09 01:41:28;;;;;;;70.00;33.07;;;;;;;;;;4914956;29;20472;-59
2023/01/09 02:16:36;;;;;;;67.83;32.00;;;;;;;;;;4935797;29;20182;-59
2023/01/09 02:19:03;;;;;;;71.47;32.67;;;;;;;;;;4916000;29;20274;-60
2023/01/09 02:21:48;;;;;;;70.93;33.40;;;;;;;;;;4926885;29;20598;-59
2023/01/09 02:24:21;;;;;;;66.60;30.60;;;;;;;;;;4934370;29;20498;-60
2023/01/09 02:26:51;;;;;;;67.40;32.33;;;;;;;;;;4934107;29;20218;-60
2023/01/09 02:29:40;;;;;;;71.00;31.80;;;;;;;;;;4916007;29;20202;-59
2023/01/09 02:32:18;;;;;;;67.63;32.40;;;;;;;;;;4923980;29;20194;-59
2023/01/09 02:34:48;;;;;;;63.83;31.63;;;;;;;;;;4932811;29;20689;-59
2023/01/09 02:37:17;;;;;;;71.77;32.20;;;;;;;;;;4933531;29;20207;-60
2023/01/09 02:39:53;;;;;;;60.57;30.77;;;;;;;;;;4934383;29;20199;-59
2023/01/09 02:42:20;;;;;;;72.50;32.47;;;;;;;;;;4934348;29;20242;-59
2023/01/09 02:44:47;;;;;;;73.10;32.60;;;;;;;;;;4934468;29;20878;-59
2023/01/09 02:47:13;;;;;;;70.27;32.23;;;;;;;;;;4931879;29;20220;-59
2023/01/09 02:49:47;;;;;;;68.87;33.63;;;;;;;;;;4933835;29;20234;-60
2023/01/09 02:52:22;;;;;;;63.63;31.50;;;;;;;;;;4934803;29;20631;-59
2023/01/09 02:55:21;;;;;;;73.40;33.70;;;;;;;;;;4934297;29;20485;-59
2023/01/09 02:57:53;;;;;;;69.60;33.87;;;;;;;;;;4934230;29;20229;-60
2023/01/09 03:00:53;;;;;;;72.13;32.93;;;;;;;;;;4933439;29;20438;-59
2023/01/09 03:03:26;;;;;;;75.00;33.87;;;;;;;;;;4934321;29;20450;-59
2023/01/09 03:06:22;;;;;;;70.57;31.90;;;;;;;;;;4933004;29;20674;-59
2023/01/09 03:08:53;;;;;;;74.20;32.13;;;;;;;;;;4932596;29;20198;-59
2023/01/09 03:11:20;;;;;;;73.93;34.33;;;;;;;;;;4931517;29;20210;-61
2023/01/09 03:13:47;;;;;;;67.37;32.37;;;;;;;;;;4932326;29;20486;-66
2023/01/09 03:16:16;;;;;;;73.67;33.90;;;;;;;;;;4933506;29;20183;-64
2023/01/09 03:18:43;;;;;;;76.53;34.00;;;;;;;;;;4932387;29;20190;-64
2023/01/09 03:21:10;;;;;;;72.87;34.60;;;;;;;;;;4932468;29;20870;-64
2023/01/09 03:23:50;;;;;;;77.93;34.43;;;;;;;;;;4920229;29;20427;-64
2023/01/09 03:26:16;;;;;;;69.43;33.20;;;;;;;;;;4915354;29;20483;-63
2023/01/09 03:28:43;;;;;;;72.23;33.47;;;;;;;;;;4925595;29;20215;-65
2023/01/09 03:31:10;;;;;;;70.67;33.87;;;;;;;;;;4934306;29;20187;-63
2023/01/09 03:33:54;;;;;;;77.67;33.87;;;;;;;;;;4928829;29;20818;-63
2023/01/09 03:36:21;;;;;;;80.47;34.87;;;;;;;;;;4928379;29;20522;-63
2023/01/09 03:38:48;;;;;;;70.47;33.13;;;;;;;;;;4934769;29;20213;-62
2023/01/09 03:41:14;;;;;;;70.50;34.00;;;;;;;;;;4929828;29;20195;-62
2023/01/09 03:43:41;;;;;;;71.30;33.33;;;;;;;;;;4928111;29;20569;-61
2023/01/09 03:46:08;;;;;;;75.30;32.53;;;;;;;;;;4926729;29;20540;-63
2023/01/09 03:48:34;;;;;;;72.53;31.90;;;;;;;;;;4937313;29;20193;-60
2023/01/09 03:51:01;;;;;;;80.60;35.73;;;;;;;;;;4933079;29;20937;-61
2023/01/09 03:53:28;;;;;;;71.07;32.03;;;;;;;;;;4932852;29;20463;-62
2023/01/09 03:55:55;;;;;;;77.00;33.27;;;;;;;;;;4932836;29;20195;-61
2023/01/09 03:58:21;;;;;;;77.33;34.73;;;;;;;;;;4933026;29;20997;-61
2023/01/09 04:01:11;;;;;;;73.17;33.60;;;;;;;;;;4933049;29;20186;-60
2023/01/09 04:03:38;;;;;;;77.37;32.93;;;;;;;;;;4932742;29;20227;-60
2023/01/09 04:06:05;;;;;;;78.67;33.13;;;;;;;;;;4931651;29;20299;-60
2023/01/09 04:08:31;;;;;;;79.03;34.77;;;;;;;;;;4932493;29;20454;-60
2023/01/09 04:10:58;;;;;;;82.20;35.53;;;;;;;;;;4932313;29;20245;-61
2023/01/09 04:13:43;;;;;;;73.60;33.70;;;;;;;;;;4932524;29;21033;-62
2023/01/09 04:16:10;;;;;;;74.83;32.43;;;;;;;;;;4933089;29;20191;-60
2023/01/09 04:18:54;;;;;;;79.37;34.27;;;;;;;;;;4931294;29;20214;-61
2023/01/09 04:21:21;;;;;;;77.70;33.83;;;;;;;;;;4932582;29;20431;-63
2023/01/09 04:23:47;;;;;;;80.70;33.97;;;;;;;;;;4932306;29;20570;-60
2023/01/09 04:26:14;;;;;;;85.23;35.13;;;;;;;;;;4932110;29;20221;-60
2023/01/09 04:28:40;;;;;;;88.57;35.97;;;;;;;;;;4902420;29;20282;-60
2023/01/09 04:31:25;;;;;;;84.43;34.90;;;;;;;;;;4919688;29;20643;-61
2023/01/09 04:33:51;;;;;;;85.77;34.60;;;;;;;;;;4929854;29;20217;-60
2023/01/09 04:36:18;;;;;;;83.80;34.23;;;;;;;;;;4932857;29;20430;-60
2023/01/09 04:38:45;;;;;;;84.43;34.87;;;;;;;;;;4929072;29;20705;-62
2023/01/09 04:41:47;;;;;;;82.27;34.43;;;;;;;;;;4919964;29;20254;-62
2023/01/09 04:43:58;;;;;;;83.60;34.13;;;;;;;;;;4929949;29;20966;-62
2023/01/09 04:46:25;;;;;;;86.40;36.17;;;;;;;;;;4932117;28;20252;-64
2023/01/09 04:48:51;;;;;;;87.93;35.10;;;;;;;;;;4934452;29;21215;-61
2023/01/09 04:51:18;;;;;;;83.87;34.87;;;;;;;;;;4930289;29;20522;-61
2023/01/09 04:53:44;;;;;;;93.30;35.07;;;;;;;;;;4934835;28;20470;-62
2023/01/09 04:56:11;;;;;;;78.70;33.40;;;;;;;;;;4932385;29;20262;-62
2023/01/09 04:58:38;;;;;;;82.83;33.60;;;;;;;;;;4937677;29;20221;-61
2023/01/09 05:01:04;;;;;;;87.07;34.17;;;;;;;;;;4937897;29;20182;-62
2023/01/09 05:03:31;;;;;;;87.70;34.77;;;;;;;;;;4935400;29;20276;-63
2023/01/09 05:05:58;;;;;;;86.60;34.93;;;;;;;;;;4931254;29;21055;-60
2023/01/09 05:08:27;;;;;;;88.17;34.57;;;;;;;;;;4930863;29;20982;-61
2023/01/09 05:10:53;;;;;;;89.03;34.80;;;;;;;;;;4936599;29;20590;-62
2023/01/09 05:13:20;;;;;;;81.80;33.30;;;;;;;;;;4928939;29;20486;-61
2023/01/09 05:15:46;;;;;;;88.43;34.87;;;;;;;;;;4938991;28;20219;-62
2023/01/09 05:18:13;;;;;;;85.93;34.63;;;;;;;;;;4929854;29;20226;-63
2023/01/09 05:20:40;;;;;;;90.57;34.63;;;;;;;;;;4936697;29;20190;-61
2023/01/09 05:23:06;;;;;;;78.57;32.00;;;;;;;;;;4927289;29;20198;-63
2023/01/09 05:25:33;;;;;;;79.50;35.67;;;;;;;;;;4931756;29;20487;-62
2023/01/09 05:28:17;;;;;;;81.37;34.70;;;;;;;;;;4936382;28;20794;-63
2023/01/09 05:30:44;;;;;;;82.70;35.47;;;;;;;;;;4926996;28;21047;-61
2023/01/09 05:33:10;;;;;;;87.23;36.83;;;;;;;;;;4913537;29;20205;-61
2023/01/09 05:35:37;;;;;;;96.10;35.93;;;;;;;;;;4931494;29;20218;-62
2023/01/09 05:38:03;;;;;;;96.57;35.87;;;;;;;;;;4932100;29;20577;-62
2023/01/09 05:40:30;;;;;;;93.87;37.63;;;;;;;;;;4932609;29;20194;-61
2023/01/09 05:43:05;;;;;;;86.50;34.40;;;;;;;;;;4934374;29;20446;-61
2023/01/09 05:45:31;;;;;;;87.93;36.50;;;;;;;;;;4936244;29;20195;-61
2023/01/09 05:47:58;;;;;;;85.20;34.27;;;;;;;;;;4936071;29;20537;-61
2023/01/09 05:50:25;;;;;;;89.73;37.03;;;;;;;;;;4935440;29;20447;-61
2023/01/09 05:53:09;;;;;;;91.90;37.37;;;;;;;;;;4934758;29;20183;-62
2023/01/09 05:55:35;;;;;;;87.87;37.93;;;;;;;;;;4935256;29;20218;-62
2023/01/09 05:58:02;;;;;;;89.17;36.03;;;;;;;;;;4929507;29;20199;-62
2023/01/09 06:00:29;;;;;;;96.87;38.10;;;;;;;;;;4910928;29;20731;-64
2023/01/09 06:02:56;;;;;;;89.70;37.50;;;;;;;;;;4930605;29;20202;-61
2023/01/09 06:05:22;;;;;;;91.53;38.63;;;;;;;;;;4939897;28;20882;-61
2023/01/09 06:07:49;;;;;;;85.03;37.00;;;;;;;;;;4929994;29;20427;-63
2023/01/09 06:10:16;;;;;;;90.63;38.90;;;;;;;;;;4934262;29;20218;-65
2023/01/09 06:12:47;;;;;;;85.93;36.83;;;;;;;;;;4917069;29;21352;-64
2023/01/09 06:15:16;;;;;;;86.77;37.90;;;;;;;;;;4932118;29;20470;-63
2023/01/09 06:17:43;;;;;;;85.47;36.67;;;;;;;;;;4929731;29;20949;-64
2023/01/09 06:20:10;;;;;;;91.83;36.07;;;;;;;;;;4934436;29;20473;-63
2023/01/09 06:22:37;;;;;;;84.33;37.53;;;;;;;;;;4936964;29;20470;-63
2023/01/09 06:25:04;;;;;;;81.97;36.73;;;;;;;;;;4924011;29;20454;-61
2023/01/09 06:27:31;;;;;;;85.07;35.33;;;;;;;;;;4922102;29;20573;-62
2023/01/09 06:29:58;;;;;;;85.17;36.83;;;;;;;;;;4933283;29;20453;-63
2023/01/09 06:32:25;;;;;;;89.80;37.30;;;;;;;;;;4930829;29;20456;-61
2023/01/09 06:34:51;;;;;;;89.23;39.07;;;;;;;;;;4920340;29;20597;-61
2023/01/09 06:37:18;;;;;;;81.67;38.17;;;;;;;;;;4915833;29;20912;-61
2023/01/09 06:39:45;;;;;;;81.97;37.27;;;;;;;;;;4932241;29;20514;-61
2023/01/09 06:42:11;;;;;;;80.13;36.17;;;;;;;;;;4934731;29;20431;-61
2023/01/09 06:44:38;;;;;;;84.07;37.13;;;;;;;;;;4934826;29;20431;-62
2023/01/09 06:47:04;;;;;;;84.50;37.10;;;;;;;;;;4934514;29;20796;-61
2023/01/09 06:49:31;;;;;;;81.60;37.17;;;;;;;;;;4934670;29;20442;-62
2023/01/09 06:51:58;;;;;;;83.47;37.23;;;;;;;;;;4934651;29;20222;-62
2023/01/09 06:54:24;;;;;;;77.40;34.53;;;;;;;;;;4925975;29;20474;-62
2023/01/09 06:56:54;;;;;;;77.50;34.80;;;;;;;;;;4927655;28;20721;-65
2023/01/09 06:59:20;;;;;;;73.63;32.83;;;;;;;;;;4930246;29;20442;-62
2023/01/09 07:01:47;;;;;;;82.17;34.60;;;;;;;;;;4933544;29;20454;-63
2023/01/09 07:04:14;;;;;;;82.60;36.90;;;;;;;;;;4934387;29;20198;-62
2023/01/09 07:06:40;;;;;;;80.93;35.53;;;;;;;;;;4933744;29;20236;-63
2023/01/09 07:09:12;;;;;;;81.27;33.93;;;;;;;;;;4944134;28;20213;-63
2023/01/09 07:11:39;;;;;;;85.20;37.80;;;;;;;;;;4932247;28;20540;-63
2023/01/09 07:14:05;;;;;;;81.93;34.50;;;;;;;;;;4931394;29;20694;-63
2023/01/09 07:16:32;;;;;;;85.80;36.53;;;;;;;;;;4918121;29;20209;-62
2023/01/09 07:18:59;;;;;;;84.23;36.67;;;;;;;;;;4934788;29;20437;-62
2023/01/09 07:21:26;;;;;;;77.90;37.30;;;;;;;;;;4935609;28;20285;-62
2023/01/09 07:24:10;;;;;;;84.13;35.40;;;;;;;;;;4919429;29;21079;-62
2023/01/09 07:26:37;;;;;;;82.43;36.97;;;;;;;;;;4933675;29;20466;-63
2023/01/09 07:29:21;;;;;;;71.90;33.20;;;;;;;;;;4918722;29;20178;-62
2023/01/09 07:31:48;;;;;;;77.53;35.03;;;;;;;;;;4937660;29;20429;-63
2023/01/09 07:34:32;;;;;;;80.20;35.23;;;;;;;;;;4913319;29;20793;-62
2023/01/09 07:36:58;;;;;;;75.70;34.53;;;;;;;;;;4932589;29;20701;-63
2023/01/09 07:39:25;;;;;;;76.63;33.60;;;;;;;;;;4937538;28;20203;-63
2023/01/09 07:41:52;;;;;;;72.97;33.23;;;;;;;;;;4929743;29;20195;-61
2023/01/09 07:44:19;;;;;;;67.97;35.07;;;;;;;;;;4935307;29;20229;-61
2023/01/09 07:46:46;;;;;;;83.13;36.33;;;;;;;;;;4932964;29;20449;-62
2023/01/09 07:49:13;;;;;;;77.90;35.23;;;;;;;;;;4937160;29;20546;-64
2023/01/09 07:51:42;;;;;;;70.93;34.67;;;;;;;;;;4935676;29;20201;-62
2023/01/09 07:54:10;;;;;;;75.67;33.63;;;;;;;;;;4936084;29;20201;-62
2023/01/09 07:56:36;;;;;;;68.77;33.33;;;;;;;;;;4932506;29;20201;-64
2023/01/09 07:59:03;;;;;;;79.17;34.57;;;;;;;;;;4930194;29;20520;-64
2023/01/09 08:01:30;;;;;;;71.20;32.87;;;;;;;;;;4933266;28;20526;-64
2023/01/09 08:03:56;;;;;;;73.07;34.77;;;;;;;;;;4931890;28;20219;-61
2023/01/09 08:06:23;;;;;;;78.97;36.37;;;;;;;;;;4930364;29;20788;-63
2023/01/09 08:08:50;;;;;;;72.50;34.70;;;;;;;;;;4931679;29;20681;-62
2023/01/09 08:11:16;;;;;;;75.20;33.40;;;;;;;;;;4921465;29;20488;-63
2023/01/09 08:13:43;;;;;;;70.93;35.40;;;;;;;;;;4936076;28;20277;-61
2023/01/09 08:16:10;;;;;;;74.90;34.47;;;;;;;;;;4934831;29;20226;-63
2023/01/09 08:18:37;;;;;;;65.87;32.37;;;;;;;;;;4933873;29;20234;-62
2023/01/09 08:21:04;;;;;;;68.30;32.00;;;;;;;;;;4932820;29;20658;-63
2023/01/09 08:23:31;;;;;;;70.43;31.37;;;;;;;;;;4933187;29;21005;-62
2023/01/09 08:25:57;;;;;;;72.10;33.73;;;;;;;;;;4932322;29;20238;-62
2023/01/09 08:28:24;;;;;;;71.47;32.27;;;;;;;;;;4932772;29;20190;-62
2023/01/09 08:30:50;;;;;;;70.03;32.67;;;;;;;;;;4931744;29;20207;-62
2023/01/09 08:33:17;;;;;;;63.03;32.03;;;;;;;;;;4932870;29;20207;-62
2023/01/09 08:35:44;;;;;;;70.00;33.00;;;;;;;;;;4932525;29;20473;-62
2023/01/09 08:38:11;;;;;;;63.77;31.00;;;;;;;;;;4915737;29;20205;-62
2023/01/09 08:40:37;;;;;;;64.40;31.37;;;;;;;;;;4932799;29;20198;-62
2023/01/09 08:48:34;;;;;;;64.37;32.60;;;;;;;;;;4932642;29;20607;-63
2023/01/09 08:51:18;;;;;;;66.00;32.20;;;;;;;;;;4932286;29;20179;-62
2023/01/09 08:53:45;;;;;;;66.80;31.93;;;;;;;;;;4932478;29;20187;-62
2023/01/09 08:56:12;;;;;;;62.37;31.17;;;;;;;;;;4932267;29;20203;-62
2023/01/09 08:58:38;;;;;;;73.27;33.33;;;;;;;;;;4932183;29;20210;-62
2023/01/09 09:01:06;;;;;;;64.90;32.63;;;;;;;;;;4932745;29;20222;-62
2023/01/09 09:03:50;;;;;;;64.80;31.63;;;;;;;;;;4932906;29;20175;-62
2023/01/09 09:06:16;;;;;;;72.93;32.67;;;;;;;;;;4932547;29;20199;-62
2023/01/09 09:08:43;;;;;;;68.37;33.03;;;;;;;;;;4932658;29;20461;-63
2023/01/09 09:11:10;;;;;;;67.70;34.13;;;;;;;;;;4932291;29;20199;-63
2023/01/09 09:13:37;;;;;;;71.57;32.97;;;;;;;;;;4932666;29;20195;-62
2023/01/09 09:16:03;;;;;;;69.03;33.20;;;;;;;;;;4934077;29;20485;-63
2023/01/09 09:18:30;;;;;;;73.87;33.60;;;;;;;;;;4936518;29;20471;-62
2023/01/09 09:20:57;;;;;;;78.33;33.73;;;;;;;;;;4936646;29;20190;-62
2023/01/09 09:23:24;;;;;;;72.10;33.50;;;;;;;;;;4936094;29;20183;-62
2023/01/09 09:25:50;;;;;;;73.73;33.33;;;;;;;;;;4935835;29;20222;-63
2023/01/09 09:28:17;;;;;;;79.43;36.13;;;;;;;;;;4936506;29;20198;-63
2023/01/09 09:30:44;;;;;;;78.83;33.90;;;;;;;;;;4936578;29;20195;-63
2023/01/09 09:33:10;;;;;;;79.93;35.03;;;;;;;;;;4903269;29;20199;-63
2023/01/09 09:35:37;;;;;;;75.63;31.83;;;;;;;;;;4935878;29;20478;-63
2023/01/09 09:38:04;;;;;;;71.93;31.17;;;;;;;;;;4935848;29;20470;-63
2023/01/09 09:40:50;;;;;;;78.33;33.77;;;;;;;;;;4935747;29;20191;-62
2023/01/09 09:46:23;;;;;;;81.43;33.13;;;;;;;;;;4936077;29;20445;-63
2023/01/09 09:49:01;;;;;;;86.47;35.77;;;;;;;;;;4935913;29;20452;-63
2023/01/09 09:51:37;;;;;;;82.23;34.50;;;;;;;;;;4919058;29;20190;-63
2023/01/09 09:54:31;;;;;;;86.03;34.93;;;;;;;;;;4935593;29;20977;-63
2023/01/09 09:56:58;;;;;;;80.97;34.63;;;;;;;;;;4935118;29;20776;-62
2023/01/09 09:59:26;;;;;;;88.80;35.67;;;;;;;;;;4918751;29;20427;-63
2023/01/09 10:02:08;;;;;;;90.67;37.87;;;;;;;;;;4918809;29;20998;-62
2023/01/09 10:04:59;;;;;;;87.10;35.77;;;;;;;;;;4935561;29;20795;-62
2023/01/09 10:07:27;;;;;;;82.80;36.60;;;;;;;;;;4935295;29;20201;-62
2023/01/09 10:09:54;;;;;;;97.03;38.47;;;;;;;;;;4935723;29;20658;-62
2023/01/09 10:12:25;;;;;;;89.70;37.50;;;;;;;;;;4935032;29;20636;-63
2023/01/09 10:14:53;;;;;;;88.87;36.97;;;;;;;;;;4935307;29;20713;-62
2023/01/09 10:17:26;;;;;;;91.53;39.00;;;;;;;;;;4934883;29;20775;-62
2023/01/09 10:20:11;;;;;;;88.67;37.27;;;;;;;;;;4918288;29;20262;-62
2023/01/09 10:22:41;;;;;;;92.13;37.97;;;;;;;;;;4935237;29;20583;-63
2023/01/09 10:25:20;;;;;;;89.40;37.63;;;;;;;;;;4935457;29;20198;-62
2023/01/09 10:27:47;;;;;;;94.03;38.43;;;;;;;;;;4917357;29;20446;-62
2023/01/09 10:30:24;;;;;;;88.57;37.77;;;;;;;;;;4917937;29;20194;-62
2023/01/09 10:33:00;;;;;;;93.20;38.27;;;;;;;;;;4918185;29;20378;-62
2023/01/09 10:35:26;;;;;;;85.17;36.17;;;;;;;;;;4935216;29;20210;-63
2023/01/09 10:38:12;;;;;;;91.63;35.83;;;;;;;;;;4935038;29;20175;-63
2023/01/09 10:40:40;;;;;;;96.40;39.03;;;;;;;;;;4934566;29;20426;-63
2023/01/09 10:43:12;;;;;;;88.20;35.90;;;;;;;;;;4935110;29;20524;-63
2023/01/09 10:45:53;;;;;;;85.43;37.13;;;;;;;;;;4917826;29;20226;-63
2023/01/09 10:48:23;;;;;;;92.70;37.27;;;;;;;;;;4917414;29;20207;-63
2023/01/09 10:50:49;;;;;;;84.40;36.53;;;;;;;;;;4934847;29;20439;-62
2023/01/09 10:53:25;;;;;;;90.17;37.43;;;;;;;;;;4934424;29;20205;-62
2023/01/09 10:55:57;;;;;;;90.57;36.57;;;;;;;;;;4917590;29;20564;-62
2023/01/09 10:58:24;;;;;;;95.23;38.37;;;;;;;;;;4931803;29;20207;-62
2023/01/09 11:00:51;;;;;;;89.67;37.60;;;;;;;;;;4935682;29;20779;-62
2023/01/09 11:03:19;;;;;;;86.60;36.93;;;;;;;;;;4935033;29;20542;-62
2023/01/09 11:05:49;;;;;;;85.20;35.93;;;;;;;;;;4933709;29;20794;-63
2023/01/09 11:08:28;;;;;;;87.57;36.20;;;;;;;;;;4934903;29;20733;-62
2023/01/09 11:10:55;;;;;;;71.40;30.50;;;;;;;;;;4933881;29;20502;-62
2023/01/09 11:13:22;;;;;;;91.03;37.07;;;;;;;;;;4933367;29;20942;-62
2023/01/09 11:16:13;;;;;;;93.70;35.90;;;;;;;;;;4934514;29;20706;-62
2023/01/09 11:18:47;;;;;;;101.90;37.30;;;;;;;;;;4925311;29;20465;-62
2023/01/09 11:21:34;;;;;;;97.93;36.60;;;;;;;;;;4927584;28;20449;-62
2023/01/09 11:24:16;;;;;;;99.43;35.97;;;;;;;;;;4930182;29;20445;-65
2023/01/09 11:26:43;;;;;;;97.73;36.37;;;;;;;;;;4931871;29;20250;-62
2023/01/09 11:29:11;;;;;;;95.07;36.87;;;;;;;;;;4929146;29;20439;-62
2023/01/09 11:31:38;;;;;;;89.17;35.33;;;;;;;;;;4930622;29;20451;-61
2023/01/09 11:34:06;;;;;;;92.93;36.60;;;;;;;;;;4931570;28;20827;-61
2023/01/09 11:36:33;;;;;;;90.17;36.33;;;;;;;;;;4920167;29;20490;-63
2023/01/09 11:39:01;;;;;;;90.40;35.83;;;;;;;;;;4940505;28;20455;-63
2023/01/09 11:41:29;;;;;;;92.53;36.70;;;;;;;;;;4931037;29;20449;-61
2023/01/09 11:44:13;;;;;;;75.77;32.80;;;;;;;;;;4942929;28;20537;-61
2023/01/09 11:46:42;;;;;;;83.07;33.07;;;;;;;;;;4929995;29;20441;-61
2023/01/09 11:49:16;;;;;;;80.60;31.67;;;;;;;;;;4929784;29;20445;-61
2023/01/09 11:51:43;;;;;;;86.17;34.47;;;;;;;;;;4928272;29;20458;-61
2023/01/09 11:54:29;;;;;;;76.73;31.40;;;;;;;;;;4935591;29;20467;-63
2023/01/09 11:56:55;;;;;;;80.33;32.97;;;;;;;;;;4913062;29;20506;-63
2023/01/09 11:59:29;;;;;;;77.87;31.23;;;;;;;;;;4929869;29;20438;-61
2023/01/09 12:01:58;;;;;;;78.77;33.63;;;;;;;;;;4912695;29;20446;-62
2023/01/09 12:04:27;;;;;;;77.73;32.67;;;;;;;;;;4912940;29;20438;-62
2023/01/09 12:11:04;;;;;;;79.77;31.20;;;;;;;;;;4925313;29;21222;-62
2023/01/09 12:13:43;;;;;;;83.33;32.40;;;;;;;;;;4930313;29;20513;-61
2023/01/09 12:16:22;;;;;;;79.60;33.03;;;;;;;;;;4927859;29;20477;-60
2023/01/09 12:19:24;;;;;;;82.23;34.00;;;;;;;;;;4929675;29;20500;-61
2023/01/09 12:21:57;;;;;;;91.97;35.47;;;;;;;;;;4880806;29;20292;-61
2023/01/09 12:24:38;;;;;;;82.97;35.13;;;;;;;;;;4911553;29;20509;-61
2023/01/09 12:27:05;;;;;;;85.67;35.83;;;;;;;;;;4914340;28;20540;-61
2023/01/09 12:29:51;;;;;;;93.27;36.03;;;;;;;;;;4926414;29;20839;-60
2023/01/09 12:32:17;;;;;;;81.03;33.97;;;;;;;;;;4927309;29;20202;-60
2023/01/09 12:34:59;;;;;;;83.33;35.03;;;;;;;;;;4927357;29;20847;-63
2023/01/09 12:37:35;;;;;;;84.47;32.97;;;;;;;;;;4927538;29;20219;-61
2023/01/09 12:40:15;;;;;;;84.70;33.60;;;;;;;;;;4926596;29;20454;-60
2023/01/09 12:42:52;;;;;;;80.90;35.23;;;;;;;;;;4927410;29;20444;-61
2023/01/09 12:45:40;;;;;;;95.27;36.77;;;;;;;;;;4919839;29;20533;-61
2023/01/09 12:48:13;;;;;;;79.33;33.50;;;;;;;;;;4928486;29;21185;-60
2023/01/09 12:50:55;;;;;;;79.20;33.27;;;;;;;;;;4935938;28;20429;-60
2023/01/09 12:53:26;;;;;;;94.67;35.60;;;;;;;;;;4930836;29;20454;-62
2023/01/09 12:56:03;;;;;;;101.73;39.57;;;;;;;;;;4911790;29;20833;-62
2023/01/09 12:58:32;;;;;;;79.30;34.67;;;;;;;;;;4930794;29;20849;-60
2023/01/09 13:00:59;;;;;;;92.83;36.33;;;;;;;;;;4930679;29;20223;-61
2023/01/09 13:03:29;;;;;;;70.13;30.70;;;;;;;;;;4910238;29;20462;-60
2023/01/09 13:05:56;;;;;;;73.90;30.07;;;;;;;;;;4938921;28;20977;-61
2023/01/09 13:08:23;;;;;;;68.87;28.37;;;;;;;;;;4930751;29;20442;-61
2023/01/09 13:10:55;;;;;;;62.37;27.07;;;;;;;;;;4916331;29;20501;-63
2023/01/09 13:13:32;;;;;;;59.90;27.10;;;;;;;;;;4913154;29;20447;-63
2023/01/09 13:16:03;;;;;;;63.53;27.10;;;;;;;;;;4927799;29;20226;-60
2023/01/09 13:18:41;;;;;;;59.23;26.20;;;;;;;;;;4910589;29;20455;-60
2023/01/09 13:21:08;;;;;;;60.57;26.07;;;;;;;;;;4909188;28;20286;-59
2023/01/09 13:23:40;;;;;;;59.97;26.93;;;;;;;;;;4910027;29;20546;-60
2023/01/09 13:26:09;;;;;;;59.00;25.90;;;;;;;;;;4924945;29;20486;-60
2023/01/09 13:28:38;;;;;;;59.23;26.73;;;;;;;;;;4931428;28;20558;-62
2023/01/09 13:31:11;;;;;;;52.60;25.57;;;;;;;;;;4937357;29;20544;-60
2023/01/09 13:33:38;;;;;;;52.70;25.10;;;;;;;;;;4919058;29;20509;-62
2023/01/09 13:36:05;;;;;;;50.83;24.67;;;;;;;;;;4911932;29;20474;-61
2023/01/09 13:38:33;;;;;;;57.07;25.17;;;;;;;;;;4914299;29;20485;-60
2023/01/09 13:44:06;;;;;;;60.90;25.13;;;;;;;;;;4920339;29;20646;-61
2023/01/09 13:46:43;;;;;;;54.70;25.73;;;;;;;;;;4910151;29;20478;-61
2023/01/09 13:49:32;;;;;;;62.93;26.73;;;;;;;;;;4928052;29;20556;-62
2023/01/09 13:52:18;;;;;;;57.87;25.83;;;;;;;;;;4928839;29;20434;-61
2023/01/09 13:54:52;;;;;;;54.17;25.80;;;;;;;;;;4930746;29;20454;-60
2023/01/09 13:57:18;;;;;;;58.90;25.03;;;;;;;;;;4931896;29;20577;-60
2023/01/09 13:59:47;;;;;;;53.20;24.57;;;;;;;;;;4929013;29;20465;-61
2023/01/09 14:02:32;;;;;;;58.73;26.67;;;;;;;;;;4932211;29;20772;-60
2023/01/09 14:04:59;;;;;;;57.23;25.57;;;;;;;;;;4935576;29;20199;-60
2023/01/09 14:07:48;;;;;;;54.57;26.67;;;;;;;;;;4934769;29;20203;-60
2023/01/09 14:10:24;;;;;;;53.03;24.83;;;;;;;;;;4936152;29;20265;-60
2023/01/09 14:12:53;;;;;;;54.03;24.70;;;;;;;;;;4934105;29;20270;-61
2023/01/09 14:15:28;;;;;;;53.87;25.23;;;;;;;;;;4936070;29;20274;-61
2023/01/09 14:18:01;;;;;;;51.83;25.50;;;;;;;;;;4928755;29;20560;-60
2023/01/09 14:20:37;;;;;;;58.17;26.07;;;;;;;;;;4938023;29;20186;-60
2023/01/09 14:23:04;;;;;;;55.20;25.33;;;;;;;;;;4935024;29;20446;-60
2023/01/09 14:25:51;;;;;;;54.13;25.33;;;;;;;;;;4935736;29;20246;-60
2023/01/09 14:28:26;;;;;;;56.43;25.23;;;;;;;;;;4937192;29;20502;-61
2023/01/09 14:31:25;;;;;;;48.77;24.30;;;;;;;;;;4936285;29;20214;-61
2023/01/09 14:34:06;;;;;;;48.43;24.50;;;;;;;;;;4938464;28;20445;-62
2023/01/09 14:36:49;;;;;;;50.00;24.07;;;;;;;;;;4936600;29;20489;-61
2023/01/09 14:39:16;;;;;;;55.53;26.33;;;;;;;;;;4919010;29;20444;-60
2023/01/09 14:42:05;;;;;;;55.30;26.57;;;;;;;;;;4938442;28;20237;-62
2023/01/09 14:44:47;;;;;;;54.07;25.87;;;;;;;;;;4923951;29;20198;-62
2023/01/09 14:47:21;;;;;;;51.97;25.60;;;;;;;;;;4931750;29;21018;-60
2023/01/09 14:49:55;;;;;;;55.83;27.20;;;;;;;;;;4931812;29;20450;-64
2023/01/09 14:52:25;;;;;;;52.03;26.23;;;;;;;;;;4907609;29;20878;-60
2023/01/09 14:54:51;;;;;;;50.47;25.07;;;;;;;;;;4939271;29;20224;-60
2023/01/09 14:57:22;;;;;;;49.90;25.90;;;;;;;;;;4917294;29;20886;-61
2023/01/09 15:00:15;;;;;;;52.93;26.60;;;;;;;;;;4937121;29;20210;-60
2023/01/09 15:02:41;;;;;;;46.17;25.30;;;;;;;;;;4937075;29;20218;-61
2023/01/09 15:05:13;;;;;;;51.50;26.47;;;;;;;;;;4935437;29;20202;-61
2023/01/09 15:07:43;;;;;;;48.50;25.33;;;;;;;;;;4900201;29;20451;-61
2023/01/09 15:10:19;;;;;;;49.57;24.70;;;;;;;;;;4936581;29;20257;-60
2023/01/09 15:12:46;;;;;;;54.63;28.50;;;;;;;;;;4933799;29;20292;-60
2023/01/09 15:15:14;;;;;;;51.27;27.03;;;;;;;;;;4916615;29;20218;-61
2023/01/09 15:17:43;;;;;;;50.07;26.30;;;;;;;;;;4931350;29;20485;-61
2023/01/09 15:20:17;;;;;;;44.50;25.10;;;;;;;;;;4934663;29;20442;-60
2023/01/09 15:22:48;;;;;;;48.83;26.20;;;;;;;;;;4935758;29;20457;-60
2023/01/09 15:25:24;;;;;;;52.40;26.50;;;;;;;;;;4930742;28;20438;-60
2023/01/09 15:28:21;;;;;;;50.07;25.43;;;;;;;;;;4936757;28;20792;-62
2023/01/09 15:31:12;;;;;;;52.13;26.63;;;;;;;;;;4921832;29;20488;-61
2023/01/09 15:33:39;;;;;;;52.03;27.43;;;;;;;;;;4928946;29;20487;-61